sensor_id;sensor_type;location;lat;lon;timestamp;P1;durP1;ratioP1;P2;durP2;ratioP2
41141;SDS011;63666;52.284;20.890;2023-05-14T00:01:07;8.20;;;6.40;;
41141;SDS011;63666;52.284;20.890;2023-05-14T00:03:42;8.30;;;6.80;;
41141;SDS011;63666;52.284;20.890;2023-05-14T00:06:17;9.50;;;6.80;;
41141;SDS011;63666;52.284;20.890;2023-05-14T00:08:52;8.80;;;6.60;;
41141;SDS011;63666;52.284;20.890;2023-05-14T00:11:26;8.70;;;6.80;;
41141;SDS011;63666;52.284;20.890;2023-05-14T00:14:02;8.20;;;6.40;;
41141;SDS011;63666;52.284;20.890;2023-05-14T00:16:37;8.90;;;6.70;;
41141;SDS011;63666;52.284;20.890;2023-05-14T00:19:16;8.40;;;6.60;;
41141;SDS011;63666;52.284;20.890;2023-05-14T00:21:51;9.40;;;6.90;;
41141;SDS011;63666;52.284;20.890;2023-05-14T00:24:26;8.60;;;6.90;;
41141;SDS011;63666;52.284;20.890;2023-05-14T00:27:04;8.50;;;6.80;;
41141;SDS011;63666;52.284;20.890;2023-05-14T00:29:40;8.70;;;6.70;;
41141;SDS011;63666;52.284;20.890;2023-05-14T00:32:18;8.00;;;6.60;;
41141;SDS011;63666;52.284;20.890;2023-05-14T00:34:55;8.20;;;6.50;;
41141;SDS011;63666;52.284;20.890;2023-05-14T00:37:29;8.50;;;6.80;;
41141;SDS011;63666;52.284;20.890;2023-05-14T00:40:06;9.10;;;6.90;;
41141;SDS011;63666;52.284;20.890;2023-05-14T00:42:43;8.00;;;6.70;;
41141;SDS011;63666;52.284;20.890;2023-05-14T00:45:22;8.70;;;6.80;;
41141;SDS011;63666;52.284;20.890;2023-05-14T00:47:58;8.30;;;6.90;;
41141;SDS011;63666;52.284;20.890;2023-05-14T00:50:33;9.10;;;6.90;;
41141;SDS011;63666;52.284;20.890;2023-05-14T00:53:08;8.20;;;6.60;;
41141;SDS011;63666;52.284;20.890;2023-05-14T00:55:46;8.60;;;6.50;;
41141;SDS011;63666;52.284;20.890;2023-05-14T00:58:23;8.70;;;6.80;;
41141;SDS011;63666;52.284;20.890;2023-05-14T01:01:01;8.10;;;6.80;;
41141;SDS011;63666;52.284;20.890;2023-05-14T01:03:36;8.40;;;6.80;;
41141;SDS011;63666;52.284;20.890;2023-05-14T01:06:17;8.30;;;6.80;;
41141;SDS011;63666;52.284;20.890;2023-05-14T01:09:03;8.10;;;6.70;;
41141;SDS011;63666;52.284;20.890;2023-05-14T01:11:51;9.00;;;6.80;;
41141;SDS011;63666;52.284;20.890;2023-05-14T01:14:35;8.70;;;7.10;;
41141;SDS011;63666;52.284;20.890;2023-05-14T01:17:16;8.30;;;6.60;;
41141;SDS011;63666;52.284;20.890;2023-05-14T01:19:58;8.10;;;6.70;;
41141;SDS011;63666;52.284;20.890;2023-05-14T01:22:35;7.90;;;6.60;;
41141;SDS011;63666;52.284;20.890;2023-05-14T01:25:11;8.10;;;6.80;;
41141;SDS011;63666;52.284;20.890;2023-05-14T01:27:51;8.20;;;6.90;;
41141;SDS011;63666;52.284;20.890;2023-05-14T01:30:30;8.50;;;7.00;;
41141;SDS011;63666;52.284;20.890;2023-05-14T01:33:08;8.00;;;6.80;;
41141;SDS011;63666;52.284;20.890;2023-05-14T01:35:44;8.80;;;7.00;;
41141;SDS011;63666;52.284;20.890;2023-05-14T01:38:20;8.40;;;7.00;;
41141;SDS011;63666;52.284;20.890;2023-05-14T01:41:00;9.70;;;6.70;;
41141;SDS011;63666;52.284;20.890;2023-05-14T01:43:35;8.60;;;7.00;;
41141;SDS011;63666;52.284;20.890;2023-05-14T01:46:10;9.50;;;7.10;;
41141;SDS011;63666;52.284;20.890;2023-05-14T01:48:48;9.90;;;7.10;;
41141;SDS011;63666;52.284;20.890;2023-05-14T01:51:22;8.20;;;6.80;;
41141;SDS011;63666;52.284;20.890;2023-05-14T01:53:59;9.20;;;7.10;;
41141;SDS011;63666;52.284;20.890;2023-05-14T01:56:34;9.20;;;7.40;;
41141;SDS011;63666;52.284;20.890;2023-05-14T01:59:08;8.40;;;7.10;;
41141;SDS011;63666;52.284;20.890;2023-05-14T02:01:42;8.30;;;7.30;;
41141;SDS011;63666;52.284;20.890;2023-05-14T02:04:17;9.00;;;7.40;;
41141;SDS011;63666;52.284;20.890;2023-05-14T02:06:52;8.30;;;7.40;;
41141;SDS011;63666;52.284;20.890;2023-05-14T02:09:28;8.30;;;7.20;;
41141;SDS011;63666;52.284;20.890;2023-05-14T02:12:07;8.50;;;7.40;;
41141;SDS011;63666;52.284;20.890;2023-05-14T02:14:41;8.70;;;7.80;;
41141;SDS011;63666;52.284;20.890;2023-05-14T02:17:19;8.60;;;7.10;;
41141;SDS011;63666;52.284;20.890;2023-05-14T02:19:53;8.20;;;7.00;;
41141;SDS011;63666;52.284;20.890;2023-05-14T02:22:27;8.90;;;7.90;;
41141;SDS011;63666;52.284;20.890;2023-05-14T02:25:03;8.90;;;7.40;;
41141;SDS011;63666;52.284;20.890;2023-05-14T02:27:38;9.00;;;7.70;;
41141;SDS011;63666;52.284;20.890;2023-05-14T02:30:19;8.60;;;7.60;;
41141;SDS011;63666;52.284;20.890;2023-05-14T02:32:54;8.20;;;7.30;;
41141;SDS011;63666;52.284;20.890;2023-05-14T02:35:30;9.70;;;7.90;;
41141;SDS011;63666;52.284;20.890;2023-05-14T02:38:06;9.30;;;8.00;;
41141;SDS011;63666;52.284;20.890;2023-05-14T02:40:42;8.40;;;7.30;;
41141;SDS011;63666;52.284;20.890;2023-05-14T02:43:19;9.00;;;7.80;;
41141;SDS011;63666;52.284;20.890;2023-05-14T02:45:53;8.60;;;7.60;;
41141;SDS011;63666;52.284;20.890;2023-05-14T02:48:27;9.30;;;7.80;;
41141;SDS011;63666;52.284;20.890;2023-05-14T02:51:02;9.20;;;8.20;;
41141;SDS011;63666;52.284;20.890;2023-05-14T02:53:39;8.60;;;7.70;;
41141;SDS011;63666;52.284;20.890;2023-05-14T02:56:13;8.60;;;7.60;;
41141;SDS011;63666;52.284;20.890;2023-05-14T02:58:48;8.90;;;8.00;;
41141;SDS011;63666;52.284;20.890;2023-05-14T03:01:22;9.50;;;8.20;;
41141;SDS011;63666;52.284;20.890;2023-05-14T03:03:58;10.00;;;8.50;;
41141;SDS011;63666;52.284;20.890;2023-05-14T03:06:35;9.30;;;8.30;;
41141;SDS011;63666;52.284;20.890;2023-05-14T03:09:12;9.40;;;8.00;;
41141;SDS011;63666;52.284;20.890;2023-05-14T03:11:47;9.30;;;8.30;;
41141;SDS011;63666;52.284;20.890;2023-05-14T03:14:21;9.10;;;8.10;;
41141;SDS011;63666;52.284;20.890;2023-05-14T03:16:55;9.50;;;8.20;;
41141;SDS011;63666;52.284;20.890;2023-05-14T03:19:32;9.10;;;8.00;;
41141;SDS011;63666;52.284;20.890;2023-05-14T03:22:07;10.30;;;8.40;;
41141;SDS011;63666;52.284;20.890;2023-05-14T03:24:42;9.40;;;8.10;;
41141;SDS011;63666;52.284;20.890;2023-05-14T03:27:17;9.10;;;8.10;;
41141;SDS011;63666;52.284;20.890;2023-05-14T03:29:53;10.10;;;8.40;;
41141;SDS011;63666;52.284;20.890;2023-05-14T03:32:29;9.10;;;8.00;;
41141;SDS011;63666;52.284;20.890;2023-05-14T03:35:07;10.00;;;8.90;;
41141;SDS011;63666;52.284;20.890;2023-05-14T03:37:41;9.90;;;8.90;;
41141;SDS011;63666;52.284;20.890;2023-05-14T03:40:15;9.20;;;8.30;;
41141;SDS011;63666;52.284;20.890;2023-05-14T03:42:53;9.20;;;8.30;;
41141;SDS011;63666;52.284;20.890;2023-05-14T03:45:29;9.40;;;8.40;;
41141;SDS011;63666;52.284;20.890;2023-05-14T03:48:08;9.90;;;8.90;;
41141;SDS011;63666;52.284;20.890;2023-05-14T03:50:46;9.50;;;8.40;;
41141;SDS011;63666;52.284;20.890;2023-05-14T03:53:21;9.30;;;8.40;;
41141;SDS011;63666;52.284;20.890;2023-05-14T03:55:57;9.80;;;8.80;;
41141;SDS011;63666;52.284;20.890;2023-05-14T03:58:31;9.90;;;8.90;;
41141;SDS011;63666;52.284;20.890;2023-05-14T04:01:05;9.60;;;8.60;;
41141;SDS011;63666;52.284;20.890;2023-05-14T04:03:41;9.70;;;8.70;;
41141;SDS011;63666;52.284;20.890;2023-05-14T04:06:19;9.70;;;8.70;;
41141;SDS011;63666;52.284;20.890;2023-05-14T04:08:54;9.70;;;8.70;;
41141;SDS011;63666;52.284;20.890;2023-05-14T04:11:27;9.60;;;8.60;;
41141;SDS011;63666;52.284;20.890;2023-05-14T04:14:01;9.70;;;8.70;;
41141;SDS011;63666;52.284;20.890;2023-05-14T04:16:37;9.80;;;8.80;;
41141;SDS011;63666;52.284;20.890;2023-05-14T04:19:13;10.20;;;9.20;;
41141;SDS011;63666;52.284;20.890;2023-05-14T04:21:49;10.00;;;9.00;;
41141;SDS011;63666;52.284;20.890;2023-05-14T04:24:23;9.50;;;8.50;;
41141;SDS011;63666;52.284;20.890;2023-05-14T04:26:58;10.40;;;8.90;;
41141;SDS011;63666;52.284;20.890;2023-05-14T04:29:33;10.00;;;9.00;;
41141;SDS011;63666;52.284;20.890;2023-05-14T04:32:07;10.10;;;8.90;;
41141;SDS011;63666;52.284;20.890;2023-05-14T04:34:43;9.60;;;8.60;;
41141;SDS011;63666;52.284;20.890;2023-05-14T04:37:17;9.70;;;8.70;;
41141;SDS011;63666;52.284;20.890;2023-05-14T04:39:51;10.50;;;9.40;;
41141;SDS011;63666;52.284;20.890;2023-05-14T04:42:24;9.90;;;8.90;;
41141;SDS011;63666;52.284;20.890;2023-05-14T04:44:59;10.20;;;9.20;;
41141;SDS011;63666;52.284;20.890;2023-05-14T04:47:35;10.80;;;9.50;;
41141;SDS011;63666;52.284;20.890;2023-05-14T04:50:14;10.20;;;9.20;;
41141;SDS011;63666;52.284;20.890;2023-05-14T04:52:48;10.50;;;9.40;;
41141;SDS011;63666;52.284;20.890;2023-05-14T04:55:22;10.40;;;9.30;;
41141;SDS011;63666;52.284;20.890;2023-05-14T04:57:56;10.80;;;9.70;;
41141;SDS011;63666;52.284;20.890;2023-05-14T05:00:30;10.70;;;9.60;;
41141;SDS011;63666;52.284;20.890;2023-05-14T05:03:06;10.50;;;9.20;;
41141;SDS011;63666;52.284;20.890;2023-05-14T05:05:40;10.80;;;9.50;;
41141;SDS011;63666;52.284;20.890;2023-05-14T05:08:16;10.60;;;9.50;;
41141;SDS011;63666;52.284;20.890;2023-05-14T05:10:51;10.80;;;9.70;;
41141;SDS011;63666;52.284;20.890;2023-05-14T05:13:26;10.90;;;9.80;;
41141;SDS011;63666;52.284;20.890;2023-05-14T05:16:02;11.10;;;9.70;;
41141;SDS011;63666;52.284;20.890;2023-05-14T05:18:39;10.90;;;9.80;;
41141;SDS011;63666;52.284;20.890;2023-05-14T05:21:17;10.60;;;9.50;;
41141;SDS011;63666;52.284;20.890;2023-05-14T05:23:54;11.10;;;10.00;;
41141;SDS011;63666;52.284;20.890;2023-05-14T05:26:28;11.40;;;10.20;;
41141;SDS011;63666;52.284;20.890;2023-05-14T05:29:02;11.30;;;10.10;;
41141;SDS011;63666;52.284;20.890;2023-05-14T05:31:38;10.90;;;9.80;;
41141;SDS011;63666;52.284;20.890;2023-05-14T05:34:12;10.70;;;9.60;;
41141;SDS011;63666;52.284;20.890;2023-05-14T05:36:47;10.60;;;9.60;;
41141;SDS011;63666;52.284;20.890;2023-05-14T05:39:23;10.80;;;9.70;;
41141;SDS011;63666;52.284;20.890;2023-05-14T05:42:07;10.90;;;9.80;;
41141;SDS011;63666;52.284;20.890;2023-05-14T05:44:41;10.80;;;9.80;;
41141;SDS011;63666;52.284;20.890;2023-05-14T05:47:15;11.20;;;10.10;;
41141;SDS011;63666;52.284;20.890;2023-05-14T05:49:50;11.40;;;10.20;;
41141;SDS011;63666;52.284;20.890;2023-05-14T05:52:24;11.00;;;9.90;;
41141;SDS011;63666;52.284;20.890;2023-05-14T05:54:59;11.10;;;10.00;;
41141;SDS011;63666;52.284;20.890;2023-05-14T05:57:34;11.20;;;10.10;;
41141;SDS011;63666;52.284;20.890;2023-05-14T06:00:12;11.30;;;10.20;;
41141;SDS011;63666;52.284;20.890;2023-05-14T06:02:48;11.10;;;10.00;;
41141;SDS011;63666;52.284;20.890;2023-05-14T06:05:23;10.80;;;9.70;;
41141;SDS011;63666;52.284;20.890;2023-05-14T06:07:59;10.90;;;9.80;;
41141;SDS011;63666;52.284;20.890;2023-05-14T06:10:35;10.60;;;9.50;;
41141;SDS011;63666;52.284;20.890;2023-05-14T06:13:08;11.00;;;9.90;;
41141;SDS011;63666;52.284;20.890;2023-05-14T06:15:43;10.80;;;9.60;;
41141;SDS011;63666;52.284;20.890;2023-05-14T06:18:17;10.50;;;9.50;;
41141;SDS011;63666;52.284;20.890;2023-05-14T06:20:52;10.30;;;9.30;;
41141;SDS011;63666;52.284;20.890;2023-05-14T06:23:27;11.00;;;9.90;;
41141;SDS011;63666;52.284;20.890;2023-05-14T06:26:00;10.20;;;9.10;;
41141;SDS011;63666;52.284;20.890;2023-05-14T06:28:34;10.60;;;9.40;;
41141;SDS011;63666;52.284;20.890;2023-05-14T06:31:08;10.60;;;9.60;;
41141;SDS011;63666;52.284;20.890;2023-05-14T06:33:44;10.20;;;9.20;;
41141;SDS011;63666;52.284;20.890;2023-05-14T06:36:18;9.90;;;8.90;;
41141;SDS011;63666;52.284;20.890;2023-05-14T06:38:53;9.80;;;8.80;;
41141;SDS011;63666;52.284;20.890;2023-05-14T06:41:28;10.50;;;9.20;;
41141;SDS011;63666;52.284;20.890;2023-05-14T06:44:02;9.90;;;8.90;;
41141;SDS011;63666;52.284;20.890;2023-05-14T06:46:37;10.10;;;9.00;;
41141;SDS011;63666;52.284;20.890;2023-05-14T06:49:11;9.90;;;8.60;;
41141;SDS011;63666;52.284;20.890;2023-05-14T06:51:45;9.70;;;8.70;;
41141;SDS011;63666;52.284;20.890;2023-05-14T06:54:19;9.30;;;8.30;;
41141;SDS011;63666;52.284;20.890;2023-05-14T06:56:52;10.40;;;8.40;;
41141;SDS011;63666;52.284;20.890;2023-05-14T06:59:26;9.50;;;8.40;;
41141;SDS011;63666;52.284;20.890;2023-05-14T07:01:59;9.20;;;8.20;;
41141;SDS011;63666;52.284;20.890;2023-05-14T07:04:33;9.40;;;8.40;;
41141;SDS011;63666;52.284;20.890;2023-05-14T07:07:08;10.10;;;8.30;;
41141;SDS011;63666;52.284;20.890;2023-05-14T07:09:47;9.50;;;8.30;;
41141;SDS011;63666;52.284;20.890;2023-05-14T07:12:25;9.10;;;8.10;;
41141;SDS011;63666;52.284;20.890;2023-05-14T07:15:02;9.90;;;8.20;;
41141;SDS011;63666;52.284;20.890;2023-05-14T07:17:38;9.70;;;8.70;;
41141;SDS011;63666;52.284;20.890;2023-05-14T07:20:13;9.80;;;8.70;;
41141;SDS011;63666;52.284;20.890;2023-05-14T07:22:46;10.00;;;9.00;;
41141;SDS011;63666;52.284;20.890;2023-05-14T07:25:22;9.20;;;8.10;;
41141;SDS011;63666;52.284;20.890;2023-05-14T07:27:57;10.30;;;8.80;;
41141;SDS011;63666;52.284;20.890;2023-05-14T07:30:32;9.50;;;8.40;;
41141;SDS011;63666;52.284;20.890;2023-05-14T07:33:05;9.30;;;8.30;;
41141;SDS011;63666;52.284;20.890;2023-05-14T07:35:39;9.40;;;8.20;;
41141;SDS011;63666;52.284;20.890;2023-05-14T07:38:15;8.90;;;8.00;;
41141;SDS011;63666;52.284;20.890;2023-05-14T07:40:49;9.90;;;8.30;;
41141;SDS011;63666;52.284;20.890;2023-05-14T07:43:23;9.50;;;7.90;;
41141;SDS011;63666;52.284;20.890;2023-05-14T07:45:57;9.30;;;8.00;;
41141;SDS011;63666;52.284;20.890;2023-05-14T07:48:32;9.50;;;8.10;;
41141;SDS011;63666;52.284;20.890;2023-05-14T07:51:07;8.70;;;7.70;;
41141;SDS011;63666;52.284;20.890;2023-05-14T07:53:43;9.40;;;7.90;;
41141;SDS011;63666;52.284;20.890;2023-05-14T07:56:22;9.20;;;7.70;;
41141;SDS011;63666;52.284;20.890;2023-05-14T07:59:01;8.80;;;7.70;;
41141;SDS011;63666;52.284;20.890;2023-05-14T08:01:40;8.90;;;7.60;;
41141;SDS011;63666;52.284;20.890;2023-05-14T08:04:16;9.10;;;7.40;;
41141;SDS011;63666;52.284;20.890;2023-05-14T08:06:54;8.40;;;7.50;;
41141;SDS011;63666;52.284;20.890;2023-05-14T08:09:29;9.00;;;7.20;;
41141;SDS011;63666;52.284;20.890;2023-05-14T08:12:05;8.90;;;7.30;;
41141;SDS011;63666;52.284;20.890;2023-05-14T08:14:39;9.00;;;7.20;;
41141;SDS011;63666;52.284;20.890;2023-05-14T08:17:13;8.30;;;6.90;;
41141;SDS011;63666;52.284;20.890;2023-05-14T08:19:49;8.30;;;6.60;;
41141;SDS011;63666;52.284;20.890;2023-05-14T08:22:24;7.40;;;6.60;;
41141;SDS011;63666;52.284;20.890;2023-05-14T08:24:59;7.90;;;6.60;;
41141;SDS011;63666;52.284;20.890;2023-05-14T08:27:37;8.10;;;6.50;;
41141;SDS011;63666;52.284;20.890;2023-05-14T08:30:12;7.60;;;6.30;;
41141;SDS011;63666;52.284;20.890;2023-05-14T08:32:46;7.70;;;6.60;;
41141;SDS011;63666;52.284;20.890;2023-05-14T08:35:23;9.20;;;6.70;;
41141;SDS011;63666;52.284;20.890;2023-05-14T08:37:59;7.60;;;6.30;;
41141;SDS011;63666;52.284;20.890;2023-05-14T08:40:34;7.60;;;6.50;;
41141;SDS011;63666;52.284;20.890;2023-05-14T08:43:11;7.40;;;5.70;;
41141;SDS011;63666;52.284;20.890;2023-05-14T08:45:50;7.60;;;6.00;;
41141;SDS011;63666;52.284;20.890;2023-05-14T08:48:31;7.90;;;6.40;;
41141;SDS011;63666;52.284;20.890;2023-05-14T08:51:05;7.50;;;5.90;;
41141;SDS011;63666;52.284;20.890;2023-05-14T08:53:41;7.30;;;5.80;;
41141;SDS011;63666;52.284;20.890;2023-05-14T08:56:18;8.00;;;6.10;;
41141;SDS011;63666;52.284;20.890;2023-05-14T08:58:51;7.40;;;6.20;;
41141;SDS011;63666;52.284;20.890;2023-05-14T09:01:26;7.10;;;5.80;;
41141;SDS011;63666;52.284;20.890;2023-05-14T09:04:01;7.40;;;5.70;;
41141;SDS011;63666;52.284;20.890;2023-05-14T09:06:39;7.30;;;5.70;;
41141;SDS011;63666;52.284;20.890;2023-05-14T09:09:15;6.90;;;5.20;;
41141;SDS011;63666;52.284;20.890;2023-05-14T09:11:53;6.40;;;5.40;;
41141;SDS011;63666;52.284;20.890;2023-05-14T09:14:29;6.80;;;5.60;;
41141;SDS011;63666;52.284;20.890;2023-05-14T09:17:03;7.30;;;5.30;;
41141;SDS011;63666;52.284;20.890;2023-05-14T09:19:37;7.00;;;5.20;;
41141;SDS011;63666;52.284;20.890;2023-05-14T09:22:14;7.30;;;5.50;;
41141;SDS011;63666;52.284;20.890;2023-05-14T09:25:02;7.40;;;5.00;;
41141;SDS011;63666;52.284;20.890;2023-05-14T09:27:37;7.80;;;5.50;;
41141;SDS011;63666;52.284;20.890;2023-05-14T09:30:12;6.90;;;5.30;;
41141;SDS011;63666;52.284;20.890;2023-05-14T09:32:46;6.80;;;5.20;;
41141;SDS011;63666;52.284;20.890;2023-05-14T09:35:23;6.90;;;5.00;;
41141;SDS011;63666;52.284;20.890;2023-05-14T09:37:58;6.50;;;4.90;;
41141;SDS011;63666;52.284;20.890;2023-05-14T09:40:32;6.20;;;4.80;;
41141;SDS011;63666;52.284;20.890;2023-05-14T09:43:09;6.80;;;4.80;;
41141;SDS011;63666;52.284;20.890;2023-05-14T09:45:44;6.80;;;4.50;;
41141;SDS011;63666;52.284;20.890;2023-05-14T09:48:19;6.10;;;4.40;;
41141;SDS011;63666;52.284;20.890;2023-05-14T09:50:55;6.20;;;4.50;;
41141;SDS011;63666;52.284;20.890;2023-05-14T09:53:33;6.20;;;4.20;;
41141;SDS011;63666;52.284;20.890;2023-05-14T09:56:10;6.40;;;4.30;;
41141;SDS011;63666;52.284;20.890;2023-05-14T09:58:47;6.90;;;4.50;;
41141;SDS011;63666;52.284;20.890;2023-05-14T10:01:22;6.40;;;4.30;;
41141;SDS011;63666;52.284;20.890;2023-05-14T10:03:57;6.50;;;4.10;;
41141;SDS011;63666;52.284;20.890;2023-05-14T10:06:35;6.20;;;4.20;;
41141;SDS011;63666;52.284;20.890;2023-05-14T10:09:14;5.60;;;4.20;;
41141;SDS011;63666;52.284;20.890;2023-05-14T10:11:52;6.40;;;4.20;;
41141;SDS011;63666;52.284;20.890;2023-05-14T10:14:35;5.70;;;4.10;;
41141;SDS011;63666;52.284;20.890;2023-05-14T10:17:14;5.30;;;3.80;;
41141;SDS011;63666;52.284;20.890;2023-05-14T10:19:52;6.10;;;4.10;;
41141;SDS011;63666;52.284;20.890;2023-05-14T10:22:29;6.00;;;3.90;;
41141;SDS011;63666;52.284;20.890;2023-05-14T10:25:06;5.50;;;3.60;;
41141;SDS011;63666;52.284;20.890;2023-05-14T10:27:41;5.30;;;3.60;;
41141;SDS011;63666;52.284;20.890;2023-05-14T10:30:15;5.50;;;3.60;;
41141;SDS011;63666;52.284;20.890;2023-05-14T10:32:49;5.90;;;3.50;;
41141;SDS011;63666;52.284;20.890;2023-05-14T10:36:01;5.90;;;3.70;;
41141;SDS011;63666;52.284;20.890;2023-05-14T10:38:37;4.90;;;3.70;;
41141;SDS011;63666;52.284;20.890;2023-05-14T10:41:14;5.80;;;3.90;;
41141;SDS011;63666;52.284;20.890;2023-05-14T10:43:48;5.40;;;3.90;;
41141;SDS011;63666;52.284;20.890;2023-05-14T10:46:25;5.70;;;3.70;;
41141;SDS011;63666;52.284;20.890;2023-05-14T10:49:00;6.40;;;3.80;;
41141;SDS011;63666;52.284;20.890;2023-05-14T10:51:37;5.70;;;3.80;;
41141;SDS011;63666;52.284;20.890;2023-05-14T10:54:12;5.30;;;3.40;;
41141;SDS011;63666;52.284;20.890;2023-05-14T10:56:50;5.30;;;3.50;;
41141;SDS011;63666;52.284;20.890;2023-05-14T10:59:27;5.60;;;3.80;;
41141;SDS011;63666;52.284;20.890;2023-05-14T11:02:00;5.70;;;3.60;;
41141;SDS011;63666;52.284;20.890;2023-05-14T11:04:37;4.70;;;3.50;;
41141;SDS011;63666;52.284;20.890;2023-05-14T11:07:13;4.90;;;3.60;;
41141;SDS011;63666;52.284;20.890;2023-05-14T11:09:48;5.70;;;3.70;;
41141;SDS011;63666;52.284;20.890;2023-05-14T11:12:22;5.50;;;3.50;;
41141;SDS011;63666;52.284;20.890;2023-05-14T11:14:59;5.80;;;3.70;;
41141;SDS011;63666;52.284;20.890;2023-05-14T11:17:39;6.10;;;3.90;;
41141;SDS011;63666;52.284;20.890;2023-05-14T11:20:15;6.60;;;3.80;;
41141;SDS011;63666;52.284;20.890;2023-05-14T11:22:49;5.30;;;3.50;;
41141;SDS011;63666;52.284;20.890;2023-05-14T11:25:22;5.10;;;3.60;;
41141;SDS011;63666;52.284;20.890;2023-05-14T11:27:58;5.70;;;3.90;;
41141;SDS011;63666;52.284;20.890;2023-05-14T11:30:31;5.40;;;3.70;;
41141;SDS011;63666;52.284;20.890;2023-05-14T11:33:05;6.10;;;3.60;;
41141;SDS011;63666;52.284;20.890;2023-05-14T11:35:39;5.90;;;3.90;;
41141;SDS011;63666;52.284;20.890;2023-05-14T11:38:16;5.90;;;3.60;;
41141;SDS011;63666;52.284;20.890;2023-05-14T11:40:53;5.00;;;3.50;;
41141;SDS011;63666;52.284;20.890;2023-05-14T11:43:28;5.00;;;3.40;;
41141;SDS011;63666;52.284;20.890;2023-05-14T11:46:02;5.30;;;3.60;;
41141;SDS011;63666;52.284;20.890;2023-05-14T11:48:35;5.10;;;3.50;;
41141;SDS011;63666;52.284;20.890;2023-05-14T11:51:08;5.10;;;3.40;;
41141;SDS011;63666;52.284;20.890;2023-05-14T11:53:43;5.20;;;3.10;;
41141;SDS011;63666;52.284;20.890;2023-05-14T11:56:17;5.30;;;3.30;;
41141;SDS011;63666;52.284;20.890;2023-05-14T11:58:57;5.00;;;3.30;;
41141;SDS011;63666;52.284;20.890;2023-05-14T12:01:36;4.50;;;3.00;;
41141;SDS011;63666;52.284;20.890;2023-05-14T12:04:09;5.40;;;3.20;;
41141;SDS011;63666;52.284;20.890;2023-05-14T12:06:44;4.90;;;3.10;;
41141;SDS011;63666;52.284;20.890;2023-05-14T12:09:19;4.60;;;3.40;;
41141;SDS011;63666;52.284;20.890;2023-05-14T12:11:53;4.40;;;2.90;;
41141;SDS011;63666;52.284;20.890;2023-05-14T12:14:28;4.80;;;2.90;;
41141;SDS011;63666;52.284;20.890;2023-05-14T12:17:02;4.40;;;3.00;;
41141;SDS011;63666;52.284;20.890;2023-05-14T12:19:40;4.40;;;3.10;;
41141;SDS011;63666;52.284;20.890;2023-05-14T12:22:16;5.50;;;3.20;;
41141;SDS011;63666;52.284;20.890;2023-05-14T12:24:55;5.40;;;2.80;;
41141;SDS011;63666;52.284;20.890;2023-05-14T12:27:30;4.80;;;3.10;;
41141;SDS011;63666;52.284;20.890;2023-05-14T12:30:05;5.90;;;3.00;;
41141;SDS011;63666;52.284;20.890;2023-05-14T12:32:42;5.10;;;3.10;;
41141;SDS011;63666;52.284;20.890;2023-05-14T12:35:16;4.90;;;3.20;;
41141;SDS011;63666;52.284;20.890;2023-05-14T12:37:53;5.20;;;3.10;;
41141;SDS011;63666;52.284;20.890;2023-05-14T12:40:26;4.60;;;3.10;;
41141;SDS011;63666;52.284;20.890;2023-05-14T12:42:59;4.90;;;3.10;;
41141;SDS011;63666;52.284;20.890;2023-05-14T12:45:33;4.60;;;3.20;;
41141;SDS011;63666;52.284;20.890;2023-05-14T12:48:07;4.40;;;3.10;;
41141;SDS011;63666;52.284;20.890;2023-05-14T12:50:40;5.00;;;2.90;;
41141;SDS011;63666;52.284;20.890;2023-05-14T12:53:14;4.70;;;3.00;;
41141;SDS011;63666;52.284;20.890;2023-05-14T12:55:49;4.70;;;3.00;;
41141;SDS011;63666;52.284;20.890;2023-05-14T12:58:25;5.50;;;3.00;;
41141;SDS011;63666;52.284;20.890;2023-05-14T13:00:59;5.60;;;3.20;;
41141;SDS011;63666;52.284;20.890;2023-05-14T13:03:33;4.80;;;3.00;;
41141;SDS011;63666;52.284;20.890;2023-05-14T13:06:07;5.30;;;3.10;;
41141;SDS011;63666;52.284;20.890;2023-05-14T13:08:41;5.20;;;3.00;;
41141;SDS011;63666;52.284;20.890;2023-05-14T13:11:14;5.30;;;3.10;;
41141;SDS011;63666;52.284;20.890;2023-05-14T13:13:48;5.40;;;3.10;;
41141;SDS011;63666;52.284;20.890;2023-05-14T13:16:21;5.50;;;3.00;;
41141;SDS011;63666;52.284;20.890;2023-05-14T13:18:57;5.20;;;3.00;;
41141;SDS011;63666;52.284;20.890;2023-05-14T13:21:30;5.70;;;3.00;;
41141;SDS011;63666;52.284;20.890;2023-05-14T13:24:06;5.70;;;3.00;;
41141;SDS011;63666;52.284;20.890;2023-05-14T13:26:39;4.40;;;2.90;;
41141;SDS011;63666;52.284;20.890;2023-05-14T13:29:14;4.40;;;2.70;;
41141;SDS011;63666;52.284;20.890;2023-05-14T13:31:48;5.20;;;2.80;;
41141;SDS011;63666;52.284;20.890;2023-05-14T13:34:22;5.20;;;2.90;;
41141;SDS011;63666;52.284;20.890;2023-05-14T13:36:56;5.80;;;2.90;;
41141;SDS011;63666;52.284;20.890;2023-05-14T13:39:29;4.70;;;3.00;;
41141;SDS011;63666;52.284;20.890;2023-05-14T13:42:03;4.60;;;2.70;;
41141;SDS011;63666;52.284;20.890;2023-05-14T13:44:37;5.00;;;2.70;;
41141;SDS011;63666;52.284;20.890;2023-05-14T13:47:10;4.60;;;2.80;;
41141;SDS011;63666;52.284;20.890;2023-05-14T13:49:44;5.40;;;2.70;;
41141;SDS011;63666;52.284;20.890;2023-05-14T13:52:17;4.70;;;2.50;;
41141;SDS011;63666;52.284;20.890;2023-05-14T13:54:51;5.20;;;2.90;;
41141;SDS011;63666;52.284;20.890;2023-05-14T13:57:24;4.40;;;2.70;;
41141;SDS011;63666;52.284;20.890;2023-05-14T13:59:57;4.70;;;2.70;;
41141;SDS011;63666;52.284;20.890;2023-05-14T14:02:31;4.30;;;2.50;;
41141;SDS011;63666;52.284;20.890;2023-05-14T14:05:07;4.70;;;2.60;;
41141;SDS011;63666;52.284;20.890;2023-05-14T14:07:40;4.80;;;2.90;;
41141;SDS011;63666;52.284;20.890;2023-05-14T14:10:14;4.70;;;2.40;;
41141;SDS011;63666;52.284;20.890;2023-05-14T14:12:47;5.40;;;2.80;;
41141;SDS011;63666;52.284;20.890;2023-05-14T14:15:21;4.40;;;2.60;;
41141;SDS011;63666;52.284;20.890;2023-05-14T14:17:55;5.30;;;2.90;;
41141;SDS011;63666;52.284;20.890;2023-05-14T14:20:29;4.00;;;2.50;;
41141;SDS011;63666;52.284;20.890;2023-05-14T14:23:02;5.00;;;2.70;;
41141;SDS011;63666;52.284;20.890;2023-05-14T14:25:35;4.20;;;2.60;;
41141;SDS011;63666;52.284;20.890;2023-05-14T14:28:08;4.70;;;2.70;;
41141;SDS011;63666;52.284;20.890;2023-05-14T14:30:42;4.90;;;2.60;;
41141;SDS011;63666;52.284;20.890;2023-05-14T14:33:15;4.30;;;2.60;;
41141;SDS011;63666;52.284;20.890;2023-05-14T14:35:49;4.30;;;2.70;;
41141;SDS011;63666;52.284;20.890;2023-05-14T14:38:23;6.40;;;3.00;;
41141;SDS011;63666;52.284;20.890;2023-05-14T14:40:57;4.90;;;2.70;;
41141;SDS011;63666;52.284;20.890;2023-05-14T14:43:32;5.80;;;2.70;;
41141;SDS011;63666;52.284;20.890;2023-05-14T14:46:06;4.70;;;2.60;;
41141;SDS011;63666;52.284;20.890;2023-05-14T14:48:39;4.40;;;2.50;;
41141;SDS011;63666;52.284;20.890;2023-05-14T14:51:13;4.60;;;2.60;;
41141;SDS011;63666;52.284;20.890;2023-05-14T14:53:46;4.20;;;2.40;;
41141;SDS011;63666;52.284;20.890;2023-05-14T14:56:20;4.80;;;2.60;;
41141;SDS011;63666;52.284;20.890;2023-05-14T14:58:57;4.80;;;2.60;;
41141;SDS011;63666;52.284;20.890;2023-05-14T15:01:34;4.70;;;2.60;;
41141;SDS011;63666;52.284;20.890;2023-05-14T15:04:09;4.10;;;2.50;;
41141;SDS011;63666;52.284;20.890;2023-05-14T15:06:44;4.00;;;2.50;;
41141;SDS011;63666;52.284;20.890;2023-05-14T15:09:24;4.00;;;2.60;;
41141;SDS011;63666;52.284;20.890;2023-05-14T15:11:59;4.60;;;2.80;;
41141;SDS011;63666;52.284;20.890;2023-05-14T15:14:33;4.40;;;2.60;;
41141;SDS011;63666;52.284;20.890;2023-05-14T15:17:07;4.40;;;2.60;;
41141;SDS011;63666;52.284;20.890;2023-05-14T15:19:43;5.10;;;2.80;;